createdAt,value
2023-05-01T09:37:34.796Z,74.41
2023-05-01T09:46:02.452Z,72.69
2023-05-01T09:48:35.687Z,72.77
2023-05-01T09:54:27.451Z,53.51
2023-05-01T10:06:07.596Z,39.08
2023-05-01T10:09:08.620Z,38.76
2023-05-01T10:26:24.554Z,27.82
2023-05-01T10:31:48.420Z,35.79
2023-05-01T10:34:19.973Z,34.10
2023-05-01T10:45:33.826Z,46.36
2023-05-01T10:54:22.214Z,43.53
2023-05-01T11:00:05.386Z,53.09
2023-05-01T11:35:28.891Z,42.75
2023-05-01T11:40:38.007Z,37.52
2023-05-01T11:48:36.177Z,34.44
2023-05-01T11:51:14.073Z,35.66
2023-05-01T11:53:44.105Z,31.51
2023-05-01T11:56:27.430Z,34.28
2023-05-01T11:59:03.077Z,32.56
2023-05-01T12:01:38.742Z,30.08
2023-05-01T12:04:11.656Z,29.05
2023-05-01T12:06:47.131Z,29.51
2023-05-01T12:09:23.106Z,33.89
2023-05-01T12:11:52.696Z,32.43
2023-05-01T12:17:04.999Z,30.78
2023-05-01T12:19:32.648Z,33.23
2023-05-01T12:22:13.218Z,33.38
2023-05-01T12:24:50.653Z,31.90
2023-05-01T12:27:25.557Z,33.95
2023-05-01T12:32:46.211Z,33.82
2023-05-01T12:35:17.448Z,30.83
2023-05-01T12:37:48.436Z,26.05
2023-05-01T12:40:17.505Z,21.77
2023-05-01T12:42:45.319Z,21.81
2023-05-01T12:45:15.297Z,19.00
2023-05-01T12:50:26.502Z,25.68
2023-05-01T12:52:54.970Z,29.21
2023-05-01T12:55:23.337Z,34.12
2023-05-01T12:57:55.026Z,31.41
2023-05-01T13:00:22.104Z,32.34
2023-05-01T13:02:49.596Z,29.54
2023-05-01T13:05:17.020Z,27.26
2023-05-01T13:07:50.113Z,23.02
2023-05-01T13:10:31.886Z,21.43
2023-05-01T13:13:01.975Z,21.03
2023-05-01T13:15:29.138Z,20.11
2023-05-01T13:18:05.568Z,18.33
2023-05-01T13:20:33.228Z,18.11
2023-05-01T13:23:01.553Z,16.90
2023-05-01T13:25:29.562Z,16.40
2023-05-01T13:27:56.714Z,17.85
2023-05-01T13:30:32.612Z,19.45
2023-05-01T13:32:59.680Z,20.99
2023-05-01T13:35:27.337Z,20.70
2023-05-01T13:37:55.029Z,24.00
2023-05-01T13:40:22.637Z,25.59
2023-05-01T13:42:53.121Z,30.43
2023-05-01T13:45:24.333Z,36.08
2023-05-01T13:47:56.697Z,40.35
2023-05-01T13:50:23.950Z,37.32
2023-05-01T13:52:50.937Z,35.47
2023-05-01T13:55:18.089Z,34.41
2023-05-01T13:57:45.529Z,36.06
2023-05-01T14:00:20.894Z,34.60
2023-05-01T14:02:49.449Z,33.83
2023-05-01T14:05:25.492Z,38.23
2023-05-01T14:08:00.462Z,33.51
2023-05-01T14:10:29.618Z,35.49
2023-05-01T14:13:00.611Z,34.01
2023-05-01T14:15:29.081Z,33.05
2023-05-01T14:17:57.206Z,39.49
2023-05-01T14:20:27.967Z,40.50
2023-05-01T14:22:55.285Z,43.07
2023-05-01T14:30:58.495Z,46.83
2023-05-01T14:33:34.708Z,48.65
2023-05-01T14:36:09.540Z,48.10
2023-05-01T14:38:41.688Z,43.67
2023-05-01T14:41:17.491Z,45.67
2023-05-01T14:46:32.054Z,50.28
2023-05-01T14:49:04.728Z,54.33
2023-05-01T14:51:34.464Z,57.80
2023-05-01T14:54:01.768Z,57.00
2023-05-01T14:56:29.676Z,63.89
2023-05-01T14:59:01.374Z,61.83
2023-05-01T15:01:29.881Z,60.01
2023-05-01T15:06:38.816Z,62.42
2023-05-01T15:09:07.904Z,62.07
2023-05-01T15:11:37.761Z,60.01
2023-05-01T15:14:07.703Z,67.26
2023-05-01T15:16:35.462Z,55.70
2023-05-01T15:24:30.637Z,62.02
2023-05-01T15:46:04.036Z,68.78
2023-05-01T15:48:45.518Z,73.65
2023-05-01T15:51:21.898Z,74.48
